createdAt,value
2022-11-24T00:06:08.753Z,11.47
2022-11-24T00:16:39.447Z,13.17
2022-11-24T00:26:42.974Z,16.67
2022-11-24T00:36:52.570Z,13.53
2022-11-24T00:47:01.791Z,5.93
2022-11-24T00:57:04.073Z,14.37
2022-11-24T01:07:16.659Z,16.27
2022-11-24T01:17:19.873Z,13.03
2022-11-24T01:27:22.101Z,15.83
2022-11-24T01:37:24.443Z,14.73
2022-11-24T01:47:37.006Z,8.27
2022-11-24T01:57:48.071Z,6.10
2022-11-24T02:07:54.659Z,11.40
2022-11-24T02:18:00.554Z,13.60
2022-11-24T02:28:08.975Z,13.97
2022-11-24T02:38:14.971Z,14.50
2022-11-24T02:48:17.260Z,13.77
2022-11-24T02:58:19.369Z,11.87
2022-11-24T03:08:23.856Z,9.07
2022-11-24T03:18:28.282Z,11.97
2022-11-24T03:28:30.359Z,10.70
2022-11-24T03:38:34.741Z,10.20
2022-11-24T03:48:41.971Z,11.50
2022-11-24T04:09:00.390Z,10.73
2022-11-24T04:19:02.721Z,9.37
2022-11-24T04:29:04.986Z,8.77
2022-11-24T04:39:23.633Z,10.07
2022-11-24T04:49:35.638Z,10.03
2022-11-24T04:59:37.852Z,10.03
2022-11-24T05:10:00.624Z,10.47
2022-11-24T05:20:02.928Z,9.77
2022-11-24T05:30:07.870Z,11.30
2022-11-24T05:40:12.830Z,10.77
2022-11-24T05:50:16.873Z,10.43
2022-11-24T06:00:20.434Z,9.97
2022-11-24T06:10:27.316Z,10.77
2022-11-24T06:20:32.635Z,16.95
2022-11-24T06:30:35.294Z,11.23
2022-11-24T06:40:37.467Z,9.00
2022-11-24T06:50:44.289Z,9.97
2022-11-24T07:00:48.940Z,10.67
2022-11-24T07:10:53.329Z,11.20
2022-11-24T07:20:55.351Z,12.27
2022-11-24T07:31:05.533Z,10.90
2022-11-24T07:41:11.500Z,11.33
2022-11-24T07:51:13.657Z,9.77
2022-11-24T08:01:17.755Z,9.13
2022-11-24T08:11:22.901Z,9.27
2022-11-24T08:21:27.223Z,8.87
2022-11-24T08:31:36.250Z,10.20
2022-11-24T08:41:38.330Z,9.50
2022-11-24T08:51:43.444Z,7.90
2022-11-24T09:01:46.013Z,10.30
2022-11-24T09:11:48.125Z,9.93
2022-11-24T09:21:50.251Z,11.20
2022-11-24T09:31:52.247Z,9.07
2022-11-24T09:42:00.246Z,9.87
2022-11-24T09:52:06.570Z,10.23
2022-11-24T10:02:12.862Z,8.80
2022-11-24T10:12:39.195Z,9.70
2022-11-24T10:23:10.707Z,11.07
2022-11-24T10:33:30.834Z,11.00
2022-11-24T10:43:37.714Z,10.03
2022-11-24T10:53:40.613Z,10.70
2022-11-24T11:03:47.811Z,11.37
2022-11-24T11:14:04.716Z,11.37
2022-11-24T11:24:17.876Z,12.03
2022-11-24T11:34:26.788Z,11.53
2022-11-24T11:44:35.933Z,11.17
2022-11-24T11:54:47.889Z,12.63
2022-11-24T12:05:06.438Z,11.10
2022-11-24T12:15:17.427Z,13.87
2022-11-24T12:25:41.318Z,13.40
2022-11-24T12:35:46.720Z,15.23
2022-11-24T12:46:11.160Z,16.60
2022-11-24T12:56:25.745Z,16.17
2022-11-24T13:06:35.486Z,16.57
2022-11-24T13:17:13.414Z,15.83
2022-11-24T13:27:18.047Z,17.23
2022-11-24T13:37:40.127Z,17.97
2022-11-24T13:47:47.138Z,15.40
2022-11-24T13:57:59.855Z,15.80
2022-11-24T14:08:06.188Z,15.03
2022-11-24T14:18:20.446Z,13.57
2022-11-24T14:28:26.224Z,14.53
2022-11-24T14:38:28.299Z,15.17
2022-11-24T14:48:50.325Z,14.00
2022-11-24T14:58:57.997Z,16.67
2022-11-24T15:09:02.235Z,13.97
2022-11-24T15:19:06.446Z,12.87
2022-11-24T15:29:08.484Z,15.10
2022-11-24T15:39:13.079Z,13.80
2022-11-24T15:49:15.112Z,13.63
2022-11-24T15:59:20.843Z,15.87
2022-11-24T16:09:23.323Z,15.77
2022-11-24T16:19:25.331Z,13.07
2022-11-24T16:29:27.394Z,15.73
2022-11-24T16:39:29.425Z,13.57
2022-11-24T16:49:31.670Z,15.67
2022-11-24T16:59:34.218Z,18.90
2022-11-24T17:09:40.779Z,17.07
2022-11-24T17:19:45.345Z,17.90
2022-11-24T17:29:47.427Z,18.10
2022-11-24T17:40:12.978Z,18.73
2022-11-24T17:50:24.049Z,19.37
2022-11-24T18:00:27.996Z,20.67
2022-11-24T18:10:36.730Z,19.57
2022-11-24T18:20:43.151Z,21.40
2022-11-24T18:30:46.214Z,21.03
2022-11-24T18:40:54.053Z,21.47
2022-11-24T18:50:58.384Z,21.67
2022-11-24T19:01:07.612Z,23.40
2022-11-24T19:11:18.640Z,23.53
2022-11-24T19:21:25.991Z,23.83
2022-11-24T19:31:30.271Z,21.67
2022-11-24T19:41:34.620Z,20.43
2022-11-24T19:51:41.577Z,19.53
2022-11-24T20:01:43.942Z,27.50
2022-11-24T20:11:47.003Z,16.23
2022-11-24T20:21:50.413Z,17.37
2022-11-24T20:31:54.989Z,16.33
2022-11-24T20:41:57.748Z,17.60
2022-11-24T20:52:02.062Z,15.43
2022-11-24T21:02:04.395Z,17.33
2022-11-24T21:12:10.274Z,15.43
2022-11-24T21:22:14.493Z,17.93
2022-11-24T21:32:19.223Z,16.13
2022-11-24T21:42:23.465Z,14.87
2022-11-24T21:52:30.586Z,16.70
2022-11-24T22:02:37.212Z,16.97
2022-11-24T22:12:39.317Z,18.77
2022-11-24T22:22:42.662Z,20.10
2022-11-24T22:32:47.061Z,14.17
2022-11-24T22:42:49.649Z,19.63
2022-11-24T22:52:51.919Z,19.33
2022-11-24T23:02:54.439Z,19.13
2022-11-24T23:12:58.043Z,17.80
2022-11-24T23:23:00.058Z,21.60
2022-11-24T23:33:02.189Z,19.73
2022-11-24T23:43:05.319Z,16.10
2022-11-24T23:53:09.599Z,18.93
